createdAt,value
2022-11-16T00:06:15.523Z,12.84
2022-11-16T00:26:16.273Z,12.84
2022-11-16T00:46:16.121Z,12.84
2022-11-16T02:06:16.032Z,12.83
2022-11-16T02:26:16.142Z,12.83
2022-11-16T02:46:15.608Z,12.83
2022-11-16T03:06:16.102Z,12.83
2022-11-16T03:26:16.085Z,12.83
2022-11-16T03:46:16.061Z,12.82
2022-11-16T04:26:16.049Z,12.82
2022-11-16T05:06:15.969Z,12.82
2022-11-16T05:26:15.955Z,12.82
2022-11-16T05:46:15.927Z,12.81
2022-11-16T06:06:15.140Z,12.81
2022-11-16T06:26:15.884Z,12.81
2022-11-16T06:46:15.871Z,12.81
2022-11-16T07:06:15.847Z,12.81
2022-11-16T07:46:45.103Z,12.8
2022-11-16T08:06:15.014Z,12.8
2022-11-16T09:46:15.657Z,12.8
2022-11-16T10:06:15.105Z,12.79
2022-11-16T10:26:15.603Z,12.79
2022-11-16T11:06:15.542Z,12.79
2022-11-16T11:46:15.473Z,12.79
2022-11-16T12:06:15.440Z,12.79
2022-11-16T12:26:15.418Z,12.79
2022-11-16T12:46:15.427Z,12.79
2022-11-16T13:06:14.227Z,12.79
2022-11-16T13:26:15.365Z,12.78
2022-11-16T13:46:40.715Z,12.78
2022-11-16T14:26:15.236Z,12.78
2022-11-16T14:46:15.247Z,12.78
2022-11-16T16:26:15.106Z,12.78
2022-11-16T16:46:15.074Z,12.78
2022-11-16T18:06:14.870Z,12.78
2022-11-16T18:26:14.987Z,12.78
2022-11-16T18:46:14.828Z,12.78
2022-11-16T19:06:14.942Z,12.78
2022-11-16T19:26:14.934Z,12.77
2022-11-16T19:46:14.906Z,12.77
2022-11-16T20:06:14.750Z,12.78
2022-11-16T20:26:14.353Z,12.78
2022-11-16T20:46:14.851Z,12.78
2022-11-16T21:06:14.841Z,12.78
2022-11-16T21:26:14.057Z,12.77
2022-11-16T21:46:14.805Z,12.77
2022-11-16T22:06:14.787Z,12.77
2022-11-16T22:26:14.658Z,12.78
2022-11-16T22:46:14.776Z,12.77
2022-11-16T23:06:14.735Z,12.77
2022-11-16T23:46:14.705Z,12.77
